sensor_id;sensor_type;location;lat;lon;timestamp;temperature;humidity
52656;SHT85;35474;51.032;6.998;2023-05-13T00:00:34;13.43;89.30
52656;SHT85;35474;51.032;6.998;2023-05-13T00:03:01;13.36;89.61
52656;SHT85;35474;51.032;6.998;2023-05-13T00:05:28;13.23;89.78
52656;SHT85;35474;51.032;6.998;2023-05-13T00:07:54;13.16;90.12
52656;SHT85;35474;51.032;6.998;2023-05-13T00:10:21;13.15;90.28
52656;SHT85;35474;51.032;6.998;2023-05-13T00:12:49;13.16;90.37
52656;SHT85;35474;51.032;6.998;2023-05-13T00:15:16;13.06;90.80
52656;SHT85;35474;51.032;6.998;2023-05-13T00:17:43;13.06;90.86
52656;SHT85;35474;51.032;6.998;2023-05-13T00:20:09;12.95;91.38
52656;SHT85;35474;51.032;6.998;2023-05-13T00:22:37;12.86;91.58
52656;SHT85;35474;51.032;6.998;2023-05-13T00:25:03;12.82;91.69
52656;SHT85;35474;51.032;6.998;2023-05-13T00:27:30;12.76;91.51
52656;SHT85;35474;51.032;6.998;2023-05-13T00:29:58;12.69;91.78
52656;SHT85;35474;51.032;6.998;2023-05-13T00:32:33;12.64;92.24
52656;SHT85;35474;51.032;6.998;2023-05-13T00:35:00;12.63;92.44
52656;SHT85;35474;51.032;6.998;2023-05-13T00:37:26;12.48;92.30
52656;SHT85;35474;51.032;6.998;2023-05-13T00:39:53;12.57;92.54
52656;SHT85;35474;51.032;6.998;2023-05-13T00:42:19;12.47;91.85
52656;SHT85;35474;51.032;6.998;2023-05-13T00:44:46;12.34;92.60
52656;SHT85;35474;51.032;6.998;2023-05-13T00:47:12;12.17;92.50
52656;SHT85;35474;51.032;6.998;2023-05-13T00:49:39;12.13;92.95
52656;SHT85;35474;51.032;6.998;2023-05-13T00:52:06;12.12;93.05
52656;SHT85;35474;51.032;6.998;2023-05-13T00:54:33;12.13;93.12
52656;SHT85;35474;51.032;6.998;2023-05-13T00:56:59;12.17;93.48
52656;SHT85;35474;51.032;6.998;2023-05-13T00:59:27;12.07;93.23
52656;SHT85;35474;51.032;6.998;2023-05-13T01:12:49;12.05;93.29
52656;SHT85;35474;51.032;6.998;2023-05-13T01:15:25;11.88;93.16
52656;SHT85;35474;51.032;6.998;2023-05-13T01:17:55;11.79;93.11
52656;SHT85;35474;51.032;6.998;2023-05-13T01:20:28;11.81;93.48
52656;SHT85;35474;51.032;6.998;2023-05-13T01:22:56;11.86;93.72
52656;SHT85;35474;51.032;6.998;2023-05-13T01:25:22;11.83;93.61
52656;SHT85;35474;51.032;6.998;2023-05-13T01:27:51;11.83;93.57
52656;SHT85;35474;51.032;6.998;2023-05-13T01:30:18;11.82;93.78
52656;SHT85;35474;51.032;6.998;2023-05-13T01:32:45;11.79;93.88
52656;SHT85;35474;51.032;6.998;2023-05-13T01:35:13;11.79;93.92
52656;SHT85;35474;51.032;6.998;2023-05-13T01:37:41;11.79;93.51
52656;SHT85;35474;51.032;6.998;2023-05-13T01:40:09;11.78;93.54
52656;SHT85;35474;51.032;6.998;2023-05-13T01:42:56;11.78;93.66
52656;SHT85;35474;51.032;6.998;2023-05-13T01:45:22;11.66;93.89
52656;SHT85;35474;51.032;6.998;2023-05-13T01:47:49;11.66;93.50
52656;SHT85;35474;51.032;6.998;2023-05-13T01:50:16;11.62;93.53
52656;SHT85;35474;51.032;6.998;2023-05-13T01:52:42;11.55;93.85
52656;SHT85;35474;51.032;6.998;2023-05-13T01:55:09;11.75;93.94
52656;SHT85;35474;51.032;6.998;2023-05-13T01:57:35;11.65;93.81
52656;SHT85;35474;51.032;6.998;2023-05-13T02:00:02;11.62;94.01
52656;SHT85;35474;51.032;6.998;2023-05-13T02:02:30;11.68;93.82
52656;SHT85;35474;51.032;6.998;2023-05-13T02:04:57;11.79;93.95
52656;SHT85;35474;51.032;6.998;2023-05-13T02:07:23;11.65;93.39
52656;SHT85;35474;51.032;6.998;2023-05-13T02:09:50;11.76;93.12
52656;SHT85;35474;51.032;6.998;2023-05-13T02:12:20;11.81;93.70
52656;SHT85;35474;51.032;6.998;2023-05-13T02:14:47;11.69;94.05
52656;SHT85;35474;51.032;6.998;2023-05-13T02:17:13;11.82;94.54
52656;SHT85;35474;51.032;6.998;2023-05-13T02:19:40;11.81;94.10
52656;SHT85;35474;51.032;6.998;2023-05-13T02:22:06;11.75;93.86
52656;SHT85;35474;51.032;6.998;2023-05-13T02:24:33;11.65;94.04
52656;SHT85;35474;51.032;6.998;2023-05-13T02:27:01;11.61;93.86
52656;SHT85;35474;51.032;6.998;2023-05-13T02:29:28;11.72;93.92
52656;SHT85;35474;51.032;6.998;2023-05-13T02:31:54;11.65;93.75
52656;SHT85;35474;51.032;6.998;2023-05-13T02:34:21;11.65;93.77
52656;SHT85;35474;51.032;6.998;2023-05-13T02:36:48;11.75;93.43
52656;SHT85;35474;51.032;6.998;2023-05-13T02:39:15;11.59;93.43
52656;SHT85;35474;51.032;6.998;2023-05-13T02:41:41;11.69;92.71
52656;SHT85;35474;51.032;6.998;2023-05-13T02:44:09;11.61;93.19
52656;SHT85;35474;51.032;6.998;2023-05-13T02:46:36;11.59;93.47
52656;SHT85;35474;51.032;6.998;2023-05-13T02:49:03;11.48;93.54
52656;SHT85;35474;51.032;6.998;2023-05-13T02:51:29;11.52;93.40
52656;SHT85;35474;51.032;6.998;2023-05-13T02:53:56;11.45;93.25
52656;SHT85;35474;51.032;6.998;2023-05-13T02:56:22;11.49;93.34
52656;SHT85;35474;51.032;6.998;2023-05-13T02:58:49;11.52;93.49
52656;SHT85;35474;51.032;6.998;2023-05-13T03:01:15;11.47;93.39
52656;SHT85;35474;51.032;6.998;2023-05-13T03:03:42;11.41;93.40
52656;SHT85;35474;51.032;6.998;2023-05-13T03:06:09;11.45;93.43
52656;SHT85;35474;51.032;6.998;2023-05-13T03:08:36;11.49;93.38
52656;SHT85;35474;51.032;6.998;2023-05-13T03:11:03;11.38;93.39
52656;SHT85;35474;51.032;6.998;2023-05-13T03:13:30;11.38;93.63
52656;SHT85;35474;51.032;6.998;2023-05-13T03:15:56;11.54;93.67
52656;SHT85;35474;51.032;6.998;2023-05-13T03:18:23;11.42;93.58
52656;SHT85;35474;51.032;6.998;2023-05-13T03:20:49;11.42;93.64
52656;SHT85;35474;51.032;6.998;2023-05-13T03:23:16;11.52;93.28
52656;SHT85;35474;51.032;6.998;2023-05-13T03:25:43;11.52;93.29
52656;SHT85;35474;51.032;6.998;2023-05-13T03:28:09;11.51;93.47
52656;SHT85;35474;51.032;6.998;2023-05-13T03:30:36;11.55;93.14
52656;SHT85;35474;51.032;6.998;2023-05-13T03:33:02;11.63;93.48
52656;SHT85;35474;51.032;6.998;2023-05-13T03:35:29;11.59;93.06
52656;SHT85;35474;51.032;6.998;2023-05-13T03:37:55;11.57;93.08
52656;SHT85;35474;51.032;6.998;2023-05-13T03:40:22;11.66;93.28
52656;SHT85;35474;51.032;6.998;2023-05-13T03:42:49;11.61;93.10
52656;SHT85;35474;51.032;6.998;2023-05-13T03:45:15;11.61;93.04
52656;SHT85;35474;51.032;6.998;2023-05-13T03:47:42;11.54;92.98
52656;SHT85;35474;51.032;6.998;2023-05-13T03:50:11;11.52;92.84
52656;SHT85;35474;51.032;6.998;2023-05-13T03:52:37;11.62;92.39
52656;SHT85;35474;51.032;6.998;2023-05-13T03:55:04;11.69;91.88
52656;SHT85;35474;51.032;6.998;2023-05-13T03:57:31;11.54;92.51
52656;SHT85;35474;51.032;6.998;2023-05-13T03:59:58;11.41;92.17
52656;SHT85;35474;51.032;6.998;2023-05-13T04:02:24;11.47;92.00
52656;SHT85;35474;51.032;6.998;2023-05-13T04:04:51;11.27;92.29
52656;SHT85;35474;51.032;6.998;2023-05-13T04:07:18;11.27;92.72
52656;SHT85;35474;51.032;6.998;2023-05-13T04:09:44;11.24;92.79
52656;SHT85;35474;51.032;6.998;2023-05-13T04:12:11;11.17;92.90
52656;SHT85;35474;51.032;6.998;2023-05-13T04:14:38;11.24;93.12
52656;SHT85;35474;51.032;6.998;2023-05-13T04:17:05;11.21;93.09
52656;SHT85;35474;51.032;6.998;2023-05-13T04:19:32;11.08;93.16
52656;SHT85;35474;51.032;6.998;2023-05-13T04:21:58;11.11;93.32
52656;SHT85;35474;51.032;6.998;2023-05-13T04:24:25;11.18;93.53
52656;SHT85;35474;51.032;6.998;2023-05-13T04:26:52;11.10;93.68
52656;SHT85;35474;51.032;6.998;2023-05-13T04:29:18;11.13;93.61
52656;SHT85;35474;51.032;6.998;2023-05-13T04:31:45;11.23;93.70
52656;SHT85;35474;51.032;6.998;2023-05-13T04:34:11;11.28;93.64
52656;SHT85;35474;51.032;6.998;2023-05-13T04:36:38;11.31;93.69
52656;SHT85;35474;51.032;6.998;2023-05-13T04:39:04;11.37;93.54
52656;SHT85;35474;51.032;6.998;2023-05-13T04:41:31;11.37;93.54
52656;SHT85;35474;51.032;6.998;2023-05-13T04:43:58;11.48;93.19
52656;SHT85;35474;51.032;6.998;2023-05-13T04:46:24;11.45;93.29
52656;SHT85;35474;51.032;6.998;2023-05-13T04:48:51;11.44;93.21
52656;SHT85;35474;51.032;6.998;2023-05-13T04:51:18;11.55;93.07
52656;SHT85;35474;51.032;6.998;2023-05-13T04:53:45;11.59;93.22
52656;SHT85;35474;51.032;6.998;2023-05-13T04:56:11;11.65;92.97
52656;SHT85;35474;51.032;6.998;2023-05-13T04:58:38;11.83;92.83
52656;SHT85;35474;51.032;6.998;2023-05-13T05:01:04;11.76;92.72
52656;SHT85;35474;51.032;6.998;2023-05-13T05:03:31;11.81;92.87
52656;SHT85;35474;51.032;6.998;2023-05-13T05:05:58;11.76;92.86
52656;SHT85;35474;51.032;6.998;2023-05-13T05:08:24;11.74;92.55
52656;SHT85;35474;51.032;6.998;2023-05-13T05:10:51;11.78;92.55
52656;SHT85;35474;51.032;6.998;2023-05-13T05:13:18;11.88;92.62
52656;SHT85;35474;51.032;6.998;2023-05-13T05:15:45;11.89;92.56
52656;SHT85;35474;51.032;6.998;2023-05-13T05:18:11;11.96;92.58
52656;SHT85;35474;51.032;6.998;2023-05-13T05:20:39;12.06;92.81
52656;SHT85;35474;51.032;6.998;2023-05-13T05:23:06;12.05;92.90
52656;SHT85;35474;51.032;6.998;2023-05-13T05:25:34;12.21;92.77
52656;SHT85;35474;51.032;6.998;2023-05-13T05:28:00;12.21;92.82
52656;SHT85;35474;51.032;6.998;2023-05-13T05:30:30;12.34;92.89
52656;SHT85;35474;51.032;6.998;2023-05-13T05:33:05;12.43;92.80
52656;SHT85;35474;51.032;6.998;2023-05-13T05:35:32;12.54;91.91
52656;SHT85;35474;51.032;6.998;2023-05-13T05:38:05;12.53;91.91
52656;SHT85;35474;51.032;6.998;2023-05-13T05:40:34;12.68;91.78
52656;SHT85;35474;51.032;6.998;2023-05-13T05:43:05;12.69;91.53
52656;SHT85;35474;51.032;6.998;2023-05-13T05:45:36;12.82;91.37
52656;SHT85;35474;51.032;6.998;2023-05-13T05:48:03;12.92;90.99
52656;SHT85;35474;51.032;6.998;2023-05-13T05:50:31;12.93;91.01
52656;SHT85;35474;51.032;6.998;2023-05-13T05:52:59;13.12;90.71
52656;SHT85;35474;51.032;6.998;2023-05-13T05:55:26;13.16;90.80
52656;SHT85;35474;51.032;6.998;2023-05-13T05:57:54;13.26;90.62
52656;SHT85;35474;51.032;6.998;2023-05-13T06:00:21;13.51;90.07
52656;SHT85;35474;51.032;6.998;2023-05-13T06:02:48;13.54;89.31
52656;SHT85;35474;51.032;6.998;2023-05-13T06:05:15;13.67;89.01
52656;SHT85;35474;51.032;6.998;2023-05-13T06:07:42;13.74;88.52
52656;SHT85;35474;51.032;6.998;2023-05-13T06:10:09;14.01;88.07
52656;SHT85;35474;51.032;6.998;2023-05-13T06:12:36;13.95;87.73
52656;SHT85;35474;51.032;6.998;2023-05-13T06:15:02;14.09;87.35
52656;SHT85;35474;51.032;6.998;2023-05-13T06:17:31;14.26;86.45
52656;SHT85;35474;51.032;6.998;2023-05-13T06:19:58;14.40;85.29
52656;SHT85;35474;51.032;6.998;2023-05-13T06:22:25;14.36;84.24
52656;SHT85;35474;51.032;6.998;2023-05-13T06:24:51;14.57;83.71
52656;SHT85;35474;51.032;6.998;2023-05-13T06:27:18;14.72;82.61
52656;SHT85;35474;51.032;6.998;2023-05-13T06:32:34;15.01;77.47
52656;SHT85;35474;51.032;6.998;2023-05-13T06:35:01;15.27;76.90
52656;SHT85;35474;51.032;6.998;2023-05-13T06:37:27;15.24;75.60
52656;SHT85;35474;51.032;6.998;2023-05-13T06:39:54;15.32;75.48
52656;SHT85;35474;51.032;6.998;2023-05-13T06:42:21;15.42;74.74
52656;SHT85;35474;51.032;6.998;2023-05-13T06:44:47;15.66;73.26
52656;SHT85;35474;51.032;6.998;2023-05-13T06:47:14;15.62;73.40
52656;SHT85;35474;51.032;6.998;2023-05-13T06:49:41;15.69;72.52
52656;SHT85;35474;51.032;6.998;2023-05-13T06:52:08;15.86;71.12
52656;SHT85;35474;51.032;6.998;2023-05-13T06:54:36;15.85;70.55
52656;SHT85;35474;51.032;6.998;2023-05-13T06:57:02;15.99;70.28
52656;SHT85;35474;51.032;6.998;2023-05-13T06:59:32;16.04;69.39
52656;SHT85;35474;51.032;6.998;2023-05-13T07:01:58;16.13;68.28
52656;SHT85;35474;51.032;6.998;2023-05-13T07:04:25;16.13;68.24
52656;SHT85;35474;51.032;6.998;2023-05-13T07:06:52;16.14;66.10
52656;SHT85;35474;51.032;6.998;2023-05-13T07:09:19;16.16;66.51
52656;SHT85;35474;51.032;6.998;2023-05-13T07:11:46;16.30;67.40
52656;SHT85;35474;51.032;6.998;2023-05-13T07:14:13;16.18;72.39
52656;SHT85;35474;51.032;6.998;2023-05-13T07:16:40;15.99;75.12
52656;SHT85;35474;51.032;6.998;2023-05-13T07:19:06;16.04;75.73
52656;SHT85;35474;51.032;6.998;2023-05-13T07:21:33;16.13;75.03
52656;SHT85;35474;51.032;6.998;2023-05-13T07:24:00;16.14;71.26
52656;SHT85;35474;51.032;6.998;2023-05-13T07:26:27;16.37;70.68
52656;SHT85;35474;51.032;6.998;2023-05-13T07:28:55;16.54;68.71
52656;SHT85;35474;51.032;6.998;2023-05-13T07:31:21;16.79;68.16
52656;SHT85;35474;51.032;6.998;2023-05-13T07:33:48;16.79;67.07
52656;SHT85;35474;51.032;6.998;2023-05-13T07:36:15;16.86;65.78
52656;SHT85;35474;51.032;6.998;2023-05-13T07:38:41;17.02;64.61
52656;SHT85;35474;51.032;6.998;2023-05-13T07:41:09;17.03;64.75
52656;SHT85;35474;51.032;6.998;2023-05-13T07:43:37;17.06;63.82
52656;SHT85;35474;51.032;6.998;2023-05-13T07:46:06;17.19;63.68
52656;SHT85;35474;51.032;6.998;2023-05-13T07:48:32;17.46;63.37
52656;SHT85;35474;51.032;6.998;2023-05-13T07:50:59;17.57;61.25
52656;SHT85;35474;51.032;6.998;2023-05-13T07:53:25;17.75;59.95
52656;SHT85;35474;51.032;6.998;2023-05-13T07:55:52;18.08;59.26
52656;SHT85;35474;51.032;6.998;2023-05-13T07:58:19;18.04;60.08
52656;SHT85;35474;51.032;6.998;2023-05-13T08:00:46;18.15;60.26
52656;SHT85;35474;51.032;6.998;2023-05-13T08:03:14;18.12;60.27
52656;SHT85;35474;51.032;6.998;2023-05-13T08:05:42;18.37;59.90
52656;SHT85;35474;51.032;6.998;2023-05-13T08:08:09;18.50;57.14
52656;SHT85;35474;51.032;6.998;2023-05-13T08:10:35;18.66;57.64
52656;SHT85;35474;51.032;6.998;2023-05-13T08:13:02;18.71;59.02
52656;SHT85;35474;51.032;6.998;2023-05-13T08:15:28;19.98;54.50
52656;SHT85;35474;51.032;6.998;2023-05-13T08:17:55;19.18;56.39
52656;SHT85;35474;51.032;6.998;2023-05-13T08:20:27;19.46;56.19
52656;SHT85;35474;51.032;6.998;2023-05-13T08:22:56;19.26;56.93
52656;SHT85;35474;51.032;6.998;2023-05-13T08:25:23;20.17;54.83
52656;SHT85;35474;51.032;6.998;2023-05-13T08:27:50;20.97;53.68
52656;SHT85;35474;51.032;6.998;2023-05-13T08:30:17;20.13;57.78
52656;SHT85;35474;51.032;6.998;2023-05-13T08:32:45;21.95;52.56
52656;SHT85;35474;51.032;6.998;2023-05-13T08:35:12;23.53;49.16
52656;SHT85;35474;51.032;6.998;2023-05-13T08:37:39;23.36;49.49
52656;SHT85;35474;51.032;6.998;2023-05-13T08:40:06;23.21;48.15
52656;SHT85;35474;51.032;6.998;2023-05-13T08:42:36;21.41;51.64
52656;SHT85;35474;51.032;6.998;2023-05-13T08:45:08;21.07;53.01
52656;SHT85;35474;51.032;6.998;2023-05-13T08:47:49;21.10;53.57
52656;SHT85;35474;51.032;6.998;2023-05-13T08:50:21;22.43;50.80
52656;SHT85;35474;51.032;6.998;2023-05-13T08:52:49;20.41;56.02
52656;SHT85;35474;51.032;6.998;2023-05-13T08:55:18;19.85;57.85
52656;SHT85;35474;51.032;6.998;2023-05-13T08:57:45;20.97;55.18
52656;SHT85;35474;51.032;6.998;2023-05-13T09:00:12;21.00;54.87
52656;SHT85;35474;51.032;6.998;2023-05-13T09:02:47;21.11;54.11
52656;SHT85;35474;51.032;6.998;2023-05-13T09:05:14;21.06;53.96
52656;SHT85;35474;51.032;6.998;2023-05-13T09:07:42;19.47;58.41
52656;SHT85;35474;51.032;6.998;2023-05-13T09:10:09;19.05;59.88
52656;SHT85;35474;51.032;6.998;2023-05-13T09:12:53;20.05;58.64
52656;SHT85;35474;51.032;6.998;2023-05-13T09:15:21;21.10;55.90
52656;SHT85;35474;51.032;6.998;2023-05-13T09:17:51;22.26;52.99
52656;SHT85;35474;51.032;6.998;2023-05-13T09:20:29;22.43;51.60
52656;SHT85;35474;51.032;6.998;2023-05-13T09:22:57;22.05;53.25
52656;SHT85;35474;51.032;6.998;2023-05-13T09:25:26;21.30;55.03
52656;SHT85;35474;51.032;6.998;2023-05-13T09:27:54;22.54;54.28
52656;SHT85;35474;51.032;6.998;2023-05-13T09:30:27;21.64;53.51
52656;SHT85;35474;51.032;6.998;2023-05-13T09:35:36;22.25;51.84
52656;SHT85;35474;51.032;6.998;2023-05-13T09:38:25;21.88;52.53
52656;SHT85;35474;51.032;6.998;2023-05-13T09:40:58;22.43;51.87
52656;SHT85;35474;51.032;6.998;2023-05-13T09:43:27;21.83;52.29
52656;SHT85;35474;51.032;6.998;2023-05-13T09:46:01;22.05;52.10
52656;SHT85;35474;51.032;6.998;2023-05-13T09:48:31;22.63;50.18
52656;SHT85;35474;51.032;6.998;2023-05-13T09:50:59;22.37;52.06
52656;SHT85;35474;51.032;6.998;2023-05-13T09:53:26;22.20;52.92
52656;SHT85;35474;51.032;6.998;2023-05-13T09:55:54;22.48;51.51
52656;SHT85;35474;51.032;6.998;2023-05-13T09:58:23;21.78;52.30
52656;SHT85;35474;51.032;6.998;2023-05-13T10:00:50;24.14;49.43
52656;SHT85;35474;51.032;6.998;2023-05-13T10:03:18;24.83;47.22
52656;SHT85;35474;51.032;6.998;2023-05-13T10:05:44;24.72;47.27
52656;SHT85;35474;51.032;6.998;2023-05-13T10:08:13;23.36;48.84
52656;SHT85;35474;51.032;6.998;2023-05-13T10:10:43;22.67;50.21
52656;SHT85;35474;51.032;6.998;2023-05-13T10:13:12;22.70;50.79
52656;SHT85;35474;51.032;6.998;2023-05-13T10:15:48;22.47;48.99
52656;SHT85;35474;51.032;6.998;2023-05-13T10:18:19;22.64;49.44
52656;SHT85;35474;51.032;6.998;2023-05-13T10:20:46;23.12;48.42
52656;SHT85;35474;51.032;6.998;2023-05-13T10:23:19;25.04;46.65
52656;SHT85;35474;51.032;6.998;2023-05-13T10:25:46;23.61;47.38
52656;SHT85;35474;51.032;6.998;2023-05-13T10:28:13;22.67;49.30
52656;SHT85;35474;51.032;6.998;2023-05-13T10:30:41;22.95;48.65
52656;SHT85;35474;51.032;6.998;2023-05-13T10:33:09;22.51;50.50
52656;SHT85;35474;51.032;6.998;2023-05-13T10:35:36;21.61;51.08
52656;SHT85;35474;51.032;6.998;2023-05-13T10:43:37;21.62;52.62
52656;SHT85;35474;51.032;6.998;2023-05-13T10:46:10;21.16;52.91
52656;SHT85;35474;51.032;6.998;2023-05-13T10:51:05;22.61;50.94
52656;SHT85;35474;51.032;6.998;2023-05-13T10:53:46;23.34;44.96
52656;SHT85;35474;51.032;6.998;2023-05-13T10:56:14;23.89;43.23
52656;SHT85;35474;51.032;6.998;2023-05-13T10:58:41;23.47;41.80
52656;SHT85;35474;51.032;6.998;2023-05-13T11:01:12;24.89;39.48
52656;SHT85;35474;51.032;6.998;2023-05-13T11:03:53;24.58;41.06
52656;SHT85;35474;51.032;6.998;2023-05-13T11:06:34;23.94;41.43
52656;SHT85;35474;51.032;6.998;2023-05-13T11:09:05;23.29;41.23
52656;SHT85;35474;51.032;6.998;2023-05-13T11:11:33;23.93;42.57
52656;SHT85;35474;51.032;6.998;2023-05-13T11:17:15;23.70;39.28
52656;SHT85;35474;51.032;6.998;2023-05-13T11:19:45;23.25;40.24
52656;SHT85;35474;51.032;6.998;2023-05-13T11:22:22;22.92;41.26
52656;SHT85;35474;51.032;6.998;2023-05-13T11:25:05;22.73;41.06
52656;SHT85;35474;51.032;6.998;2023-05-13T11:27:39;20.49;47.37
52656;SHT85;35474;51.032;6.998;2023-05-13T11:30:19;19.04;52.00
52656;SHT85;35474;51.032;6.998;2023-05-13T11:32:52;18.94;52.43
52656;SHT85;35474;51.032;6.998;2023-05-13T11:35:32;18.85;52.56
52656;SHT85;35474;51.032;6.998;2023-05-13T11:37:59;18.84;53.19
52656;SHT85;35474;51.032;6.998;2023-05-13T11:40:28;18.67;53.79
52656;SHT85;35474;51.032;6.998;2023-05-13T11:42:55;18.92;53.52
52656;SHT85;35474;51.032;6.998;2023-05-13T11:45:22;18.91;53.70
52656;SHT85;35474;51.032;6.998;2023-05-13T11:47:51;19.18;53.08
52656;SHT85;35474;51.032;6.998;2023-05-13T11:50:22;19.57;52.08
52656;SHT85;35474;51.032;6.998;2023-05-13T11:55:25;19.34;51.39
52656;SHT85;35474;51.032;6.998;2023-05-13T11:57:56;19.39;50.96
52656;SHT85;35474;51.032;6.998;2023-05-13T12:00:24;19.59;51.47
52656;SHT85;35474;51.032;6.998;2023-05-13T12:02:54;19.63;51.92
52656;SHT85;35474;51.032;6.998;2023-05-13T12:05:22;19.62;49.92
52656;SHT85;35474;51.032;6.998;2023-05-13T12:07:49;19.64;51.24
52656;SHT85;35474;51.032;6.998;2023-05-13T12:10:17;19.74;50.47
52656;SHT85;35474;51.032;6.998;2023-05-13T12:12:44;20.25;50.20
52656;SHT85;35474;51.032;6.998;2023-05-13T12:15:12;20.14;48.64
52656;SHT85;35474;51.032;6.998;2023-05-13T12:17:42;20.41;49.83
52656;SHT85;35474;51.032;6.998;2023-05-13T12:33:18;20.34;45.62
52656;SHT85;35474;51.032;6.998;2023-05-13T12:36:16;20.46;44.87
52656;SHT85;35474;51.032;6.998;2023-05-13T12:41:32;20.13;45.03
52656;SHT85;35474;51.032;6.998;2023-05-13T12:44:01;19.97;44.13
52656;SHT85;35474;51.032;6.998;2023-05-13T12:46:28;19.88;44.02
52656;SHT85;35474;51.032;6.998;2023-05-13T12:48:55;20.32;44.03
52656;SHT85;35474;51.032;6.998;2023-05-13T12:51:23;20.17;43.34
52656;SHT85;35474;51.032;6.998;2023-05-13T12:53:50;20.31;43.49
52656;SHT85;35474;51.032;6.998;2023-05-13T12:56:20;20.31;43.62
52656;SHT85;35474;51.032;6.998;2023-05-13T12:58:50;21.06;43.14
52656;SHT85;35474;51.032;6.998;2023-05-13T13:01:19;21.71;41.65
52656;SHT85;35474;51.032;6.998;2023-05-13T13:03:46;21.69;42.52
52656;SHT85;35474;51.032;6.998;2023-05-13T13:06:13;21.48;42.86
52656;SHT85;35474;51.032;6.998;2023-05-13T13:08:40;21.17;44.12
52656;SHT85;35474;51.032;6.998;2023-05-13T13:11:07;21.03;44.92
52656;SHT85;35474;51.032;6.998;2023-05-13T13:13:34;19.84;48.02
52656;SHT85;35474;51.032;6.998;2023-05-13T13:16:04;18.91;52.74
52656;SHT85;35474;51.032;6.998;2023-05-13T13:18:31;18.85;51.71
52656;SHT85;35474;51.032;6.998;2023-05-13T13:20:58;19.01;52.72
52656;SHT85;35474;51.032;6.998;2023-05-13T13:23:24;19.02;51.29
52656;SHT85;35474;51.032;6.998;2023-05-13T13:25:51;18.78;51.35
52656;SHT85;35474;51.032;6.998;2023-05-13T13:28:18;19.06;48.64
52656;SHT85;35474;51.032;6.998;2023-05-13T13:30:44;19.60;44.69
52656;SHT85;35474;51.032;6.998;2023-05-13T13:33:13;20.94;40.67
52656;SHT85;35474;51.032;6.998;2023-05-13T13:35:44;22.85;41.62
52656;SHT85;35474;51.032;6.998;2023-05-13T13:38:12;22.99;40.24
52656;SHT85;35474;51.032;6.998;2023-05-13T13:40:39;24.71;41.09
52656;SHT85;35474;51.032;6.998;2023-05-13T13:43:06;26.37;37.77
52656;SHT85;35474;51.032;6.998;2023-05-13T13:45:33;27.35;34.78
52656;SHT85;35474;51.032;6.998;2023-05-13T13:48:02;28.03;33.32
52656;SHT85;35474;51.032;6.998;2023-05-13T13:50:28;28.08;33.21
52656;SHT85;35474;51.032;6.998;2023-05-13T13:52:55;28.16;34.52
52656;SHT85;35474;51.032;6.998;2023-05-13T13:55:22;28.71;31.70
52656;SHT85;35474;51.032;6.998;2023-05-13T13:57:49;29.00;32.01
52656;SHT85;35474;51.032;6.998;2023-05-13T14:00:17;28.88;31.46
52656;SHT85;35474;51.032;6.998;2023-05-13T14:02:44;29.18;32.81
52656;SHT85;35474;51.032;6.998;2023-05-13T14:05:11;28.34;32.73
52656;SHT85;35474;51.032;6.998;2023-05-13T14:07:38;28.64;33.51
52656;SHT85;35474;51.032;6.998;2023-05-13T14:10:05;29.12;31.99
52656;SHT85;35474;51.032;6.998;2023-05-13T14:12:33;29.25;31.16
52656;SHT85;35474;51.032;6.998;2023-05-13T14:15:01;30.01;31.10
52656;SHT85;35474;51.032;6.998;2023-05-13T14:17:32;30.69;30.21
52656;SHT85;35474;51.032;6.998;2023-05-13T14:19:58;29.28;30.92
52656;SHT85;35474;51.032;6.998;2023-05-13T14:22:25;24.01;40.55
52656;SHT85;35474;51.032;6.998;2023-05-13T14:24:52;22.56;44.12
52656;SHT85;35474;51.032;6.998;2023-05-13T14:27:19;21.90;46.00
52656;SHT85;35474;51.032;6.998;2023-05-13T14:29:47;20.71;49.52
52656;SHT85;35474;51.032;6.998;2023-05-13T14:32:14;19.77;52.79
52656;SHT85;35474;51.032;6.998;2023-05-13T14:34:41;20.24;52.44
52656;SHT85;35474;51.032;6.998;2023-05-13T14:37:08;20.84;51.80
52656;SHT85;35474;51.032;6.998;2023-05-13T14:39:34;20.08;53.43
52656;SHT85;35474;51.032;6.998;2023-05-13T14:42:01;20.58;52.83
52656;SHT85;35474;51.032;6.998;2023-05-13T14:44:28;20.63;52.32
52656;SHT85;35474;51.032;6.998;2023-05-13T14:46:54;20.62;52.02
52656;SHT85;35474;51.032;6.998;2023-05-13T14:49:21;19.95;53.56
52656;SHT85;35474;51.032;6.998;2023-05-13T14:51:48;19.66;54.81
52656;SHT85;35474;51.032;6.998;2023-05-13T14:54:15;19.66;54.87
52656;SHT85;35474;51.032;6.998;2023-05-13T14:56:43;19.64;55.00
52656;SHT85;35474;51.032;6.998;2023-05-13T14:59:10;19.64;54.46
52656;SHT85;35474;51.032;6.998;2023-05-13T15:01:36;19.81;53.33
52656;SHT85;35474;51.032;6.998;2023-05-13T15:04:03;20.59;52.29
52656;SHT85;35474;51.032;6.998;2023-05-13T15:06:30;20.45;49.98
52656;SHT85;35474;51.032;6.998;2023-05-13T15:08:57;20.63;50.33
52656;SHT85;35474;51.032;6.998;2023-05-13T15:11:25;21.37;48.58
52656;SHT85;35474;51.032;6.998;2023-05-13T15:13:53;21.16;47.73
52656;SHT85;35474;51.032;6.998;2023-05-13T15:16:23;21.90;47.92
52656;SHT85;35474;51.032;6.998;2023-05-13T15:18:49;21.20;48.76
52656;SHT85;35474;51.032;6.998;2023-05-13T15:21:16;21.41;48.61
52656;SHT85;35474;51.032;6.998;2023-05-13T15:23:43;22.35;47.54
52656;SHT85;35474;51.032;6.998;2023-05-13T15:26:10;22.70;45.83
52656;SHT85;35474;51.032;6.998;2023-05-13T15:28:36;23.47;43.82
52656;SHT85;35474;51.032;6.998;2023-05-13T15:31:04;23.47;42.59
52656;SHT85;35474;51.032;6.998;2023-05-13T15:33:31;23.19;42.31
52656;SHT85;35474;51.032;6.998;2023-05-13T15:35:58;22.77;42.98
52656;SHT85;35474;51.032;6.998;2023-05-13T15:38:25;22.60;42.39
52656;SHT85;35474;51.032;6.998;2023-05-13T15:40:52;22.32;43.31
52656;SHT85;35474;51.032;6.998;2023-05-13T15:43:19;21.85;44.80
52656;SHT85;35474;51.032;6.998;2023-05-13T15:45:46;21.16;46.21
52656;SHT85;35474;51.032;6.998;2023-05-13T15:48:12;20.97;46.87
52656;SHT85;35474;51.032;6.998;2023-05-13T15:50:39;20.79;48.22
52656;SHT85;35474;51.032;6.998;2023-05-13T15:53:06;20.48;49.07
52656;SHT85;35474;51.032;6.998;2023-05-13T15:55:32;20.42;49.56
52656;SHT85;35474;51.032;6.998;2023-05-13T15:57:59;20.28;51.19
52656;SHT85;35474;51.032;6.998;2023-05-13T16:00:26;20.32;51.16
52656;SHT85;35474;51.032;6.998;2023-05-13T16:02:52;19.90;52.35
52656;SHT85;35474;51.032;6.998;2023-05-13T16:05:19;19.70;53.42
52656;SHT85;35474;51.032;6.998;2023-05-13T16:07:45;19.20;54.67
52656;SHT85;35474;51.032;6.998;2023-05-13T16:10:12;18.74;56.64
52656;SHT85;35474;51.032;6.998;2023-05-13T16:12:40;18.60;57.88
52656;SHT85;35474;51.032;6.998;2023-05-13T16:15:08;18.34;58.08
52656;SHT85;35474;51.032;6.998;2023-05-13T16:17:36;18.44;58.51
52656;SHT85;35474;51.032;6.998;2023-05-13T16:20:03;18.60;57.67